Tacoma Park, South Dakota
Current Conditions -  °F | °C
As of 8:53 PM on Tuesday 25 Nov 2014 (Local Time) from KABR Reporting Station
Light Snow Light Snow  
Wind Chill: 23°   Ceiling: 700
Heat Index: 31°   Visibility: 1.5mi
Dew Point: 29°   Wind: 9mph
Humidity: 92%   Direction: 120°ESE
Pressure: 29.79"   Gusts: NA
Location:  45.6832°N, 98.2967°W
Report Text: KABR 260253Z AUTO 12008KT 1 1/2SM -SN BR BKN007 OVC014 M01/M02 A2979 RMK AO2 SLP106 P0003 60007 T10061017 58002
Loading
Personal Weather Stations






























Interactive Weather Map New forecast layout! Learn more

10-Day Weather Forecast

Advertisements
Track Severe Weather on mobile